No particular awareness of the weather is required.    There are no Weather-warnings


Meteo18 Weather Cam more information Meteo18 Weather Cam


Thunder radar more information blitzortung!


Rain radar more information rain snow radar


Visit our other weather sites:

Template documentation
and downloads

And another site



Weather Underground History page Text

Daily Summary for May 7, 2017 Units:  English    Metric   Both
« Previous Day
Next Day »
Daily Weekly Monthly Yearly Custom
  High: Low: Average:
Temperature: 59.5 °F 49.6 °F 54 °F
Dew Point: 51.1 °F 47.7 °F 49.5 °F
Humidity: 95 % 66 % 85 %
Wind Speed: 16 mph 0 mph 4.3 mph
Wind Gust: 21 mph - -
Wind:- - West
Pressure: 30.2 in 30 in -
Precipitation: 0.03 in    
Historical Graphs
 
 
Tabular Data for May 7, 2017
Time Temperature Dew Point Pressure Wind Wind Speed Wind Gust Humidity Rainfall Rate (Hourly)
00:02 54 °F 50.7 °F 30 in SW 4 mph 20 mph 89 % 0 in
00:07 54 °F 50.7 °F 30 in WSW 8 mph 16 mph 89 % 0 in
00:12 54 °F 50.7 °F 30 in SW 5 mph 16 mph 89 % 0 in
00:17 54 °F 51.1 °F 30 in SW 6 mph 14 mph 90 % 0 in
00:22 53.8 °F 50.9 °F 30 in WSW 7 mph 14 mph 90 % 0 in
00:32 53.8 °F 50.9 °F 30 in West 6 mph 16 mph 90 % 0 in
00:37 53.8 °F 50.9 °F 30 in WSW 11 mph 19 mph 90 % 0 in
00:42 53.8 °F 50.9 °F 30 in West 13 mph 19 mph 90 % 0 in
00:47 53.6 °F 50.7 °F 30 in SW 8 mph 19 mph 90 % 0 in
00:52 53.4 °F 50.5 °F 30 in West 13 mph 16 mph 90 % 0 in
00:57 53.4 °F 50.5 °F 30 in SW 5 mph 17 mph 90 % 0 in
01:02 53.2 °F 50.4 °F 30 in WSW 5 mph 17 mph 90 % 0 in
01:07 53.2 °F 50.4 °F 30 in SW 11 mph 17 mph 90 % 0 in
01:12 53.1 °F 50.2 °F 30 in WSW 6 mph 21 mph 90 % 0 in
01:17 53.1 °F 50.2 °F 30 in West 12 mph 21 mph 90 % 0 in
01:22 53.1 °F 50.2 °F 30 in WSW 12 mph 17 mph 90 % 0 in
01:32 52.9 °F 50 °F 30 in West 11 mph 17 mph 90 % 0 in
01:37 52.9 °F 50 °F 30 in WSW 7 mph 17 mph 90 % 0 in
01:42 52.9 °F 50 °F 30 in WSW 16 mph 17 mph 90 % 0 in
01:47 52.9 °F 50 °F 30 in SW 9 mph 17 mph 90 % 0 in
01:52 52.9 °F 50 °F 30 in West 11 mph 17 mph 90 % 0 in
01:57 52.7 °F 49.8 °F 30 in WSW 7 mph 17 mph 90 % 0 in
02:02 52.7 °F 49.8 °F 30 in WSW 11 mph 14 mph 90 % 0 in
02:07 52.5 °F 49.6 °F 30 in West 5 mph 13 mph 90 % 0 in
02:12 52.5 °F 49.6 °F 30 in SW 5 mph 13 mph 90 % 0 in
02:17 52.5 °F 49.6 °F 30 in WSW 9 mph 13 mph 90 % 0 in
02:22 52.5 °F 49.6 °F 30 in WSW 8 mph 14 mph 90 % 0 in
02:27 52.5 °F 49.6 °F 30 in WSW 11 mph 14 mph 90 % 0 in
02:32 52.3 °F 49.5 °F 30 in SW 8 mph 14 mph 90 % 0 in
02:37 52.3 °F 49.5 °F 30 in SW 9 mph 16 mph 90 % 0 in
02:42 52.3 °F 49.5 °F 30 in SSW 12 mph 16 mph 90 % 0 in
02:47 52.3 °F 49.8 °F 30 in West 4 mph 16 mph 91 % 0 in
02:52 52.2 °F 49.6 °F 30 in WSW 9 mph 16 mph 91 % 0 in
02:57 52.2 °F 49.6 °F 30 in WSW 13 mph 16 mph 91 % 0 in
03:02 52.2 °F 49.6 °F 30 in West 10 mph 14 mph 91 % 0 in
03:07 52.2 °F 49.6 °F 30 in WSW 4 mph 15 mph 91 % 0 in
03:12 52.2 °F 49.6 °F 30 in WSW 11 mph 15 mph 91 % 0 in
03:17 52.2 °F 49.6 °F 30 in West 8 mph 15 mph 91 % 0 in
03:22 52 °F 49.5 °F 30 in SW 5 mph 17 mph 91 % 0 in
03:27 52 °F 49.5 °F 30 in West 8 mph 17 mph 91 % 0 in
03:32 52 °F 49.5 °F 30 in SW 11 mph 15 mph 91 % 0 in
03:42 52 °F 49.5 °F 30 in West 6 mph 17 mph 91 % 0 in
03:47 52 °F 49.5 °F 30 in WSW 8 mph 17 mph 91 % 0 in
03:52 52 °F 49.5 °F 30 in West 10 mph 13 mph 91 % 0 in
03:57 52 °F 49.5 °F 30 in WSW 12 mph 13 mph 91 % 0 in
04:02 52 °F 49.5 °F 30 in SW 7 mph 16 mph 91 % 0 in
04:07 52 °F 49.5 °F 30 in WNW 8 mph 17 mph 91 % 0 in
04:12 52 °F 49.5 °F 30 in West 7 mph 17 mph 91 % 0 in
04:17 52 °F 49.5 °F 30 in WSW 10 mph 17 mph 91 % 0 in
04:22 52 °F 49.5 °F 30 in WSW 10 mph 17 mph 91 % 0 in
04:27 52 °F 49.5 °F 30 in West 6 mph 17 mph 91 % 0 in
04:32 52 °F 49.5 °F 30 in West 7 mph 14 mph 91 % 0 in
04:37 52 °F 49.5 °F 30 in WSW 6 mph 14 mph 91 % 0 in
04:42 52 °F 49.5 °F 30 in West 6 mph 16 mph 91 % 0 in
04:47 52 °F 49.5 °F 30 in West 4 mph 16 mph 91 % 0 in
04:52 52 °F 49.5 °F 30 in West 5 mph 13 mph 91 % 0 in
04:57 52 °F 49.5 °F 30 in West 6 mph 13 mph 91 % 0 in
05:02 52 °F 49.5 °F 30 in West 6 mph 11 mph 91 % 0 in
05:07 52 °F 49.5 °F 30 in WNW 5 mph 11 mph 91 % 0 in
05:12 51.8 °F 49.3 °F 30.1 in WNW 3 mph 11 mph 91 % 0 in
05:17 51.8 °F 49.3 °F 30.1 in West 4 mph 11 mph 91 % 0 in
05:22 51.6 °F 49.5 °F 30.1 in WSW 8 mph 10 mph 92 % 0 in
05:32 51.6 °F 49.1 °F 30 in WSW 6 mph 12 mph 91 % 0 in
05:37 51.6 °F 49.1 °F 30.1 in WSW 6 mph 12 mph 91 % 0 in
05:42 51.6 °F 49.1 °F 30.1 in WSW 10 mph 12 mph 91 % 0 in
05:47 51.6 °F 49.1 °F 30.1 in WSW 6 mph 12 mph 91 % 0 in
05:52 51.6 °F 49.1 °F 30.1 in WSW 6 mph 12 mph 91 % 0 in
05:57 51.6 °F 49.1 °F 30.1 in West 4 mph 11 mph 91 % 0 in
06:02 51.6 °F 49.1 °F 30.1 in WSW 6 mph 12 mph 91 % 0 in
06:12 51.8 °F 49.3 °F 30.1 in WSW 4 mph 12 mph 91 % 0 in
06:17 51.6 °F 49.1 °F 30.1 in West 3 mph 12 mph 91 % 0 in
06:22 51.6 °F 49.1 °F 30.1 in WSW 6 mph 11 mph 91 % 0 in
06:27 51.8 °F 49.3 °F 30.1 in SW 10 mph 10 mph 91 % 0 in
06:32 51.8 °F 48.9 °F 30.1 in WSW 8 mph 8 mph 90 % 0 in
06:37 51.8 °F 48.9 °F 30.1 in WNW 4 mph 10 mph 90 % 0 in
06:42 52 °F 49.1 °F 30.1 in West 4 mph 10 mph 90 % 0 in
06:47 52 °F 49.1 °F 30.1 in West 3 mph 10 mph 90 % 0 in
06:52 52 °F 49.1 °F 30.1 in West 3 mph 10 mph 90 % 0 in
06:57 52 °F 49.1 °F 30.1 in West 8 mph 10 mph 90 % 0 in
07:02 52 °F 49.1 °F 30.1 in WNW 10 mph 10 mph 90 % 0 in
07:12 52.2 °F 49.1 °F 30.1 in WNW 2 mph 11 mph 89 % 0 in
07:17 52.2 °F 49.1 °F 30.1 in West 6 mph 13 mph 89 % 0 in
07:22 52.2 °F 49.1 °F 30.1 in West 2 mph 13 mph 89 % 0 in
07:32 52.2 °F 49.1 °F 30.1 in WSW 4 mph 7 mph 89 % 0 in
07:42 52.3 °F 49.3 °F 30.1 in West 3 mph 8 mph 89 % 0 in
07:47 52.3 °F 48.9 °F 30.1 in WSW 4 mph 8 mph 88 % 0 in
07:52 52.3 °F 48.9 °F 30.1 in West 5 mph 9 mph 88 % 0 in
08:02 52.3 °F 48.9 °F 30.1 in West 7 mph 9 mph 88 % 0 in
08:07 52.5 °F 49.1 °F 30.1 in NW 5 mph 10 mph 88 % 0 in
08:12 52.5 °F 49.1 °F 30.1 in West 8 mph 10 mph 88 % 0 in
08:17 52.7 °F 49.3 °F 30.1 in WNW 3 mph 12 mph 88 % 0 in
08:22 52.9 °F 49.5 °F 30.1 in WNW 4 mph 12 mph 88 % 0 in
08:32 53.1 °F 49.6 °F 30.1 in WSW 5 mph 11 mph 88 % 0 in
08:37 52.9 °F 49.5 °F 30.1 in WNW 8 mph 11 mph 88 % 0 in
08:42 53.1 °F 49.3 °F 30.1 in WNW 5 mph 12 mph 87 % 0 in
08:47 53.1 °F 49.6 °F 30.1 in NW 4 mph 12 mph 88 % 0 in
08:52 53.1 °F 49.3 °F 30.1 in NNW 3 mph 12 mph 87 % 0 in
08:57 53.1 °F 49.6 °F 30.1 in WNW 2 mph 12 mph 88 % 0 in
09:02 53.1 °F 49.3 °F 30.1 in West 3 mph 12 mph 87 % 0 in
09:07 53.2 °F 49.5 °F 30.1 in West 4 mph 15 mph 87 % 0 in
09:12 53.2 °F 49.5 °F 30.1 in WNW 4 mph 15 mph 87 % 0 in
09:17 53.4 °F 49.6 °F 30.1 in West 4 mph 12 mph 87 % 0 in
09:22 53.8 °F 50 °F 30.1 in West 2 mph 12 mph 87 % 0 in
09:27 53.4 °F 49.3 °F 30.1 in West 7 mph 10 mph 86 % 0 in
09:32 53.4 °F 49.6 °F 30.1 in WNW 4 mph 10 mph 87 % 0 in
09:37 53.4 °F 49.6 °F 30.1 in WNW 4 mph 10 mph 87 % 0 in
09:42 53.4 °F 49.6 °F 30.1 in Calm   8 mph 87 % 0 in
09:47 53.2 °F 49.1 °F 30.1 in WNW 6 mph 9 mph 86 % 0 in
09:52 53.2 °F 49.1 °F 30.1 in WNW 6 mph 13 mph 86 % 0 in
09:57 53.1 °F 48.9 °F 30.1 in West 5 mph 13 mph 86 % 0 in
10:02 53.1 °F 49.3 °F 30.1 in West 5 mph 13 mph 87 % 0 in
10:12 53.1 °F 49.3 °F 30.1 in West 1 mph 13 mph 87 % 0 in
10:17 52.9 °F 48.7 °F 30.1 in NNW 2 mph 13 mph 86 % 0 in
10:22 52.9 °F 49.1 °F 30.1 in NW 3 mph 13 mph 87 % 0 in
10:27 52.9 °F 49.1 °F 30.1 in SE 3 mph 13 mph 87 % 0 in
10:32 52.7 °F 48.6 °F 30.1 in WNW 4 mph 13 mph 86 % 0 in
10:42 52.9 °F 48.7 °F 30.1 in WNW 7 mph 13 mph 86 % 0 in
10:47 52.9 °F 49.1 °F 30.1 in WNW 2 mph 13 mph 87 % 0 in
10:52 53.1 °F 48.9 °F 30.1 in West 8 mph 11 mph 86 % 0 in
10:57 53.1 °F 48.9 °F 30.1 in NW 6 mph 11 mph 86 % 0 in
11:02 53.2 °F 49.1 °F 30.1 in WNW 1 mph 11 mph 86 % 0 in
11:07 53.2 °F 49.1 °F 30.1 in WNW 3 mph 10 mph 86 % 0 in
11:12 53.2 °F 49.1 °F 30.1 in WNW 6 mph 10 mph 86 % 0 in
11:17 53.2 °F 49.1 °F 30.1 in West 4 mph 12 mph 86 % 0 in
11:22 53.2 °F 49.1 °F 30.1 in WNW 6 mph 12 mph 86 % 0 in
11:27 53.6 °F 49.3 °F 30.1 in Calm   12 mph 85 % 0 in
11:32 54 °F 49.3 °F 30.1 in West 2 mph 10 mph 84 % 0 in
11:37 54.3 °F 49.6 °F 30.1 in WNW 7 mph 10 mph 84 % 0 in
11:42 54.7 °F 50.2 °F 30.1 in Calm   10 mph 85 % 0 in
11:47 54.9 °F 50.2 °F 30.1 in WNW 2 mph 9 mph 84 % 0 in
11:52 55.2 °F 50.2 °F 30.2 in NW 3 mph 9 mph 83 % 0 in
11:57 55.6 °F 50.2 °F 30.2 in Calm   9 mph 82 % 0 in
12:02 55.6 °F 49.8 °F 30.2 in NNW 5 mph 7 mph 81 % 0 in
12:07 55 °F 48.6 °F 30.2 in WNW 6 mph 9 mph 79 % 0 in
12:12 55 °F 48.6 °F 30.2 in NNW 4 mph 9 mph 79 % 0 in
12:17 55.2 °F 48.7 °F 30.2 in WNW 2 mph 8 mph 79 % 0 in
12:22 55.6 °F 49.1 °F 30.2 in NW 5 mph 8 mph 79 % 0 in
12:27 55.6 °F 49.1 °F 30.2 in NE 4 mph 8 mph 79 % 0 in
12:32 55.6 °F 49.5 °F 30.2 in WNW 2 mph 8 mph 80 % 0 in
12:42 55.8 °F 48.7 °F 30.2 in West 5 mph 9 mph 77 % 0 in
12:47 55.9 °F 49.1 °F 30.2 in NW 2 mph 9 mph 78 % 0 in
12:52 56.1 °F 48.9 °F 30.2 in NNW 1 mph 10 mph 77 % 0 in
12:57 56.3 °F 48.9 °F 30.2 in NNW 9 mph 10 mph 76 % 0 in
13:02 56.3 °F 48.9 °F 30.2 in WNW 4 mph 12 mph 76 % 0 in
13:07 56.1 °F 48.4 °F 30.2 in NW 3 mph 12 mph 75 % 0 in
13:12 56.1 °F 48.7 °F 30.2 in NNW 8 mph 12 mph 76 % 0 in
13:17 56.5 °F 48.9 °F 30.2 in North 2 mph 10 mph 76 % 0 in
13:22 56.7 °F 48.7 °F 30.2 in NW 4 mph 8 mph 75 % 0 in
13:27 57 °F 48.7 °F 30.2 in NW 3 mph 11 mph 74 % 0 in
13:32 56.8 °F 48.2 °F 30.2 in WNW 5 mph 11 mph 73 % 0 in
13:37 56.8 °F 48.6 °F 30.2 in North 8 mph 13 mph 74 % 0 in
13:42 57.4 °F 49.1 °F 30.2 in WNW 8 mph 13 mph 74 % 0 in
13:47 57.2 °F 48.2 °F 30.2 in WNW 6 mph 14 mph 72 % 0 in
13:52 57 °F 48 °F 30.2 in NW 8 mph 14 mph 72 % 0 in
13:57 57.4 °F 48.4 °F 30.2 in NW 5 mph 14 mph 72 % 0 in
14:02 57.9 °F 48.9 °F 30.2 in NW 4 mph 12 mph 72 % 0 in
14:12 57.4 °F 49.1 °F 30.2 in West 2 mph 11 mph 74 % 0 in
14:17 57.4 °F 48.7 °F 30.2 in WNW 6 mph 11 mph 73 % 0 in
14:22 57.4 °F 48.7 °F 30.2 in NW 6 mph 10 mph 73 % 0 in
14:27 57.7 °F 48.7 °F 30.2 in WNW 7 mph 10 mph 72 % 0 in
14:32 57.6 °F 48.2 °F 30.2 in WNW 13 mph 13 mph 71 % 0 in
14:42 57 °F 48 °F 30.2 in NW 5 mph 13 mph 72 % 0 in
14:52 57.2 °F 48.9 °F 30.2 in NW 2 mph 13 mph 74 % 0 in
14:57 57 °F 48.4 °F 30.2 in WNW 3 mph 10 mph 73 % 0 in
15:02 56.8 °F 48.6 °F 30.2 in WNW 7 mph 10 mph 74 % 0 in
15:12 57.2 °F 48.9 °F 30.2 in NNW 3 mph 11 mph 74 % 0 in
15:17 57.9 °F 49.3 °F 30.2 in NW 6 mph 11 mph 73 % 0 in
15:22 58.5 °F 49.1 °F 30.2 in WNW 9 mph 10 mph 71 % 0 in
15:27 58.8 °F 49.8 °F 30.2 in NNE 6 mph 10 mph 72 % 0 in
15:32 59 °F 48.4 °F 30.2 in WSW 10 mph 11 mph 68 % 0 in
15:37 59 °F 47.7 °F 30.2 in NW 2 mph 12 mph 66 % 0 in
15:47 59.2 °F 47.8 °F 30.2 in WNW 11 mph 12 mph 66 % 0 in
15:57 59.5 °F 48.6 °F 30.2 in North 3 mph 11 mph 67 % 0 in
16:02 59.2 °F 49.1 °F 30.2 in WNW 2 mph 11 mph 69 % 0 in
16:12 57.9 °F 47.8 °F 30.2 in WNW 5 mph 10 mph 69 % 0 in
16:17 57.7 °F 48 °F 30.2 in NW 3 mph 10 mph 70 % 0 in
16:22 57.6 °F 48.2 °F 30.2 in West 1 mph 10 mph 71 % 0 in
16:27 57.4 °F 48 °F 30.2 in Calm   10 mph 71 % 0 in
16:32 57.2 °F 48.2 °F 30.2 in NW 5 mph 8 mph 72 % 0 in
16:37 57.2 °F 48.6 °F 30.2 in NNW 2 mph 6 mph 73 % 0 in
16:42 57 °F 48.7 °F 30.2 in NW 3 mph 7 mph 74 % 0 in
16:47 57.2 °F 48.9 °F 30.2 in West 2 mph 7 mph 74 % 0 in
16:52 57.2 °F 48.6 °F 30.2 in NNE 2 mph 7 mph 73 % 0 in
16:57 57.2 °F 48.9 °F 30.2 in NW 5 mph 6 mph 74 % 0 in
17:02 57.2 °F 48.9 °F 30.2 in WNW 2 mph 8 mph 74 % 0 in
17:07 57 °F 48.7 °F 30.2 in WNW 1 mph 8 mph 74 % 0 in
17:12 57 °F 49.1 °F 30.2 in NNW 6 mph 8 mph 75 % 0 in
17:17 56.8 °F 48.6 °F 30.2 in WNW 3 mph 7 mph 74 % 0 in
17:22 56.7 °F 48.7 °F 30.2 in NNW 4 mph 7 mph 75 % 0 in
17:32 56.5 °F 48.9 °F 30.2 in NW 1 mph 7 mph 76 % 0 in
17:37 56.3 °F 49.1 °F 30.2 in NNW 4 mph 7 mph 77 % 0 in
17:42 56.1 °F 48.9 °F 30.2 in WNW 5 mph 6 mph 77 % 0 in
17:47 56.1 °F 48.9 °F 30.2 in NW 2 mph 6 mph 77 % 0 in
17:52 56.1 °F 48.9 °F 30.2 in WNW 3 mph 6 mph 77 % 0 in
17:57 56.1 °F 48.9 °F 30.2 in West 3 mph 6 mph 77 % 0 in
18:02 56.1 °F 48.9 °F 30.2 in West 1 mph 5 mph 77 % 0 in
18:07 56.1 °F 48.9 °F 30.2 in WNW 2 mph 6 mph 77 % 0 in
18:12 56.1 °F 48.9 °F 30.2 in WNW 1 mph 6 mph 77 % 0 in
18:17 56.1 °F 49.3 °F 30.2 in Calm   4 mph 78 % 0 in
18:22 56.1 °F 49.3 °F 30.2 in West 1 mph 4 mph 78 % 0 in
18:27 56.1 °F 48.9 °F 30.2 in WNW 3 mph 6 mph 77 % 0 in
18:37 56.1 °F 49.3 °F 30.2 in Calm   6 mph 78 % 0 in
18:42 55.9 °F 49.1 °F 30.2 in West 1 mph 3 mph 78 % 0 in
18:47 55.9 °F 49.1 °F 30.2 in WNW 1 mph 3 mph 78 % 0 in
18:52 55.8 °F 48.9 °F 30.2 in WSW 1 mph 3 mph 78 % 0 in
18:57 55.8 °F 49.3 °F 30.2 in WNW 1 mph 3 mph 79 % 0 in
19:02 55.6 °F 49.5 °F 30.2 in SW 2 mph 3 mph 80 % 0 in
19:07 55.4 °F 49.3 °F 30.2 in Calm   4 mph 80 % 0 in
19:12 55.2 °F 49.5 °F 30.2 in NW 1 mph 4 mph 81 % 0 in
19:17 55.2 °F 49.5 °F 30.2 in Calm   4 mph 81 % 0 in
19:27 54.9 °F 49.1 °F 30.2 in NW 4 mph 12 mph 81 % 0 in
19:32 54.7 °F 49.3 °F 30.2 in WNW 1 mph 12 mph 82 % 0 in
19:37 54.3 °F 49.6 °F 30.2 in NE 3 mph 12 mph 84 % 0 in
19:42 54 °F 50.2 °F 30.2 in NE 1 mph 9 mph 87 % 0 in
19:52 53.6 °F 50.4 °F 30.2 in Calm   6 mph 89 % 0 in
19:57 53.6 °F 50.4 °F 30.2 in Calm   3 mph 89 % 0 in
20:02 53.4 °F 50.2 °F 30.2 in Calm   1 mph 89 % 0 in
20:07 53.4 °F 50.2 °F 30.2 in Calm   1 mph 89 % 0 in
20:12 53.4 °F 50.2 °F 30.2 in NNE 1 mph 2 mph 89 % 0 in
20:17 53.4 °F 50.2 °F 30.2 in Calm   2 mph 89 % 0 in
20:22 53.4 °F 50.2 °F 30.2 in ENE 1 mph 2 mph 89 % 0 in
20:27 53.6 °F 50.4 °F 30.2 in Calm   2 mph 89 % 0 in
20:32 53.6 °F 50.4 °F 30.2 in Calm   1 mph 89 % 0 in
20:42 53.4 °F 50.5 °F 30.2 in Calm     90 % 0 in
20:47 53.2 °F 50.4 °F 30.2 in Calm     90 % 0 in
20:52 53.2 °F 50.4 °F 30.2 in Calm   1 mph 90 % 0 in
20:57 53.2 °F 50.4 °F 30.2 in Calm   1 mph 90 % 0 in
21:02 53.2 °F 50.4 °F 30.2 in Calm     90 % 0 in
21:07 53.1 °F 50.5 °F 30.2 in Calm     91 % 0 in
21:12 53.1 °F 50.5 °F 30.2 in Calm     91 % 0 in
21:17 53.1 °F 50.5 °F 30.2 in Calm   1 mph 91 % 0 in
21:22 52.9 °F 50.4 °F 30.2 in Calm   1 mph 91 % 0 in
21:32 52.9 °F 50.5 °F 30.2 in Calm   1 mph 92 % 0.01 in
21:37 52.9 °F 50.5 °F 30.2 in WNW 2 mph 2 mph 92 % 0.01 in
21:42 52.5 °F 50.2 °F 30.2 in Calm   4 mph 92 % 0.02 in
21:47 52.5 °F 50.2 °F 30.2 in WNW 1 mph 4 mph 92 % 0.02 in
21:57 52.5 °F 50.2 °F 30.2 in Calm   2 mph 92 % 0.03 in
22:02 52.3 °F 50 °F 30.2 in Calm   2 mph 92 % 0.03 in
22:07 52.3 °F 50.4 °F 30.2 in Calm   1 mph 93 % 0.03 in
22:12 52.3 °F 50.4 °F 30.2 in Calm   1 mph 93 % 0.03 in
22:22 52.2 °F 50.2 °F 30.2 in Calm     93 % 0.03 in
22:27 52 °F 50 °F 30.2 in Calm   1 mph 93 % 0.02 in
22:37 52 °F 50.4 °F 30.2 in Calm   1 mph 94 % 0.02 in
22:42 51.8 °F 50.2 °F 30.2 in Calm   1 mph 94 % 0.02 in
22:47 51.6 °F 50 °F 30.2 in Calm   1 mph 94 % 0.01 in
22:52 51.6 °F 50 °F 30.2 in Calm   2 mph 94 % 0.01 in
22:57 51.4 °F 49.8 °F 30.2 in Calm   2 mph 94 % 0 in
23:02 51.3 °F 49.6 °F 30.2 in Calm   2 mph 94 % 0 in
23:07 51.3 °F 49.6 °F 30.2 in Calm     94 % 0 in
23:12 51.3 °F 49.6 °F 30.2 in Calm   1 mph 94 % 0 in
23:17 51.1 °F 49.5 °F 30.2 in Calm   1 mph 94 % 0 in
23:22 50.7 °F 49.1 °F 30.2 in Calm   1 mph 94 % 0 in
23:32 50.5 °F 48.9 °F 30.2 in Calm   1 mph 94 % 0 in
23:37 50.4 °F 48.7 °F 30.2 in Calm     94 % 0 in
23:42 50.4 °F 48.9 °F 30.2 in Calm   1 mph 95 % 0 in
23:47 50.2 °F 48.7 °F 30.2 in Calm   1 mph 95 % 0 in
23:52 50 °F 48.4 °F 30.2 in Calm   1 mph 94 % 0 in
23:57 49.6 °F 48.2 °F 30.2 in Calm     95 % 0 in
Meteo18
Compliments of Weather Underground - 4 mb

Script developed by  Jim McMurry - jmcmurry@mwt.net Adapted for the template by  Wim van der Kuil - Leuven-Template.eu

You find our weather info also at:

European Weather Network

Weather Underground

Equipment we use:

Weather-station
Davis Vue

Weather-program
Meteohub

Weather-server
Raspberry PI 2 B+

Provider
1 and 1

Davis Vue

Meteohub

Raspberry PI 2 B+

1 and 1